Time;durP1;ratioP1;P1;durP2;ratioP2;P2;SDS_P1;SDS_P2;PMS_P1;PMS_P2;Temp;Humidity;BMP_temperature;BMP_pressure;BME280_temperature;BME280_humidity;BME280_pressure;Samples;Min_cycle;Max_cycle;Signal;HPM_P1;HPM_P2
2021/09/01 00:00:17;;;;;;;13.03;4.87;;;;;;;;;;362767;146;857233;-59
2021/09/01 00:01:18;;;;;;;14.57;5.34;;;;;;;;;;363185;145;857406;-58
2021/09/01 00:02:20;;;;;;;7.89;5.05;;;;;;;;;;362871;147;865276;-59
2021/09/01 00:03:21;;;;;;;6.99;5.04;;;;;;;;;;360982;146;858744;-58
2021/09/01 00:04:23;;;;;;;8.88;4.48;;;;;;;;;;364326;146;857371;-59
2021/09/01 00:05:25;;;;;;;7.14;5.05;;;;;;;;;;365961;146;857290;-59
2021/09/01 00:06:27;;;;;;;8.26;5.21;;;;;;;;;;365214;146;858949;-59
2021/09/01 00:07:29;;;;;;;8.09;4.96;;;;;;;;;;362630;147;864768;-58
2021/09/01 00:08:31;;;;;;;8.82;4.88;;;;;;;;;;364078;145;858941;-59
2021/09/01 00:09:33;;;;;;;10.33;4.98;;;;;;;;;;362108;147;859054;-60
2021/09/01 00:10:34;;;;;;;8.18;5.08;;;;;;;;;;361426;146;858553;-59
2021/09/01 00:11:36;;;;;;;6.62;4.86;;;;;;;;;;363202;146;858006;-58
2021/09/01 00:12:38;;;;;;;8.24;4.40;;;;;;;;;;364465;145;857370;-58
2021/09/01 00:13:40;;;;;;;6.86;4.54;;;;;;;;;;365897;147;859823;-58
2021/09/01 00:14:41;;;;;;;9.92;4.81;;;;;;;;;;357310;149;859922;-59
2021/09/01 00:15:43;;;;;;;8.84;4.71;;;;;;;;;;364473;146;865812;-59
2021/09/01 00:16:45;;;;;;;7.29;4.65;;;;;;;;;;364802;147;865372;-58
2021/09/01 00:17:47;;;;;;;8.18;4.87;;;;;;;;;;363315;147;858622;-58
2021/09/01 00:18:48;;;;;;;7.64;4.48;;;;;;;;;;363697;146;857476;-59
2021/09/01 00:19:50;;;;;;;5.92;4.33;;;;;;;;;;365212;146;865675;-59
2021/09/01 00:20:52;;;;;;;7.39;4.21;;;;;;;;;;363317;146;858815;-59
2021/09/01 00:21:54;;;;;;;7.45;4.45;;;;;;;;;;363830;147;858359;-59
2021/09/01 00:22:56;;;;;;;9.47;4.82;;;;;;;;;;364594;146;857296;-58
2021/09/01 00:23:57;;;;;;;7.59;4.50;;;;;;;;;;365740;147;857805;-59
2021/09/01 00:24:59;;;;;;;7.85;4.84;;;;;;;;;;360621;147;867175;-58
2021/09/01 00:26:00;;;;;;;9.55;4.41;;;;;;;;;;365443;146;859349;-59
2021/09/01 00:27:02;;;;;;;9.74;4.84;;;;;;;;;;365791;147;858697;-59
2021/09/01 00:28:04;;;;;;;5.24;4.13;;;;;;;;;;363750;147;859086;-59
2021/09/01 00:29:05;;;;;;;9.16;4.51;;;;;;;;;;363197;145;857848;-58
2021/09/01 00:30:08;;;;;;;5.29;3.41;;;;;;;;;;364338;145;857293;-59
2021/09/01 00:31:09;;;;;;;10.32;4.79;;;;;;;;;;364621;147;857477;-58
2021/09/01 00:32:12;;;;;;;6.86;4.44;;;;;;;;;;365458;147;856803;-59
2021/09/01 00:33:14;;;;;;;7.19;4.46;;;;;;;;;;365176;145;856362;-59
2021/09/01 00:34:16;;;;;;;8.30;4.33;;;;;;;;;;365248;147;858670;-59
2021/09/01 00:35:17;;;;;;;6.29;4.17;;;;;;;;;;365034;147;865529;-58
2021/09/01 00:36:19;;;;;;;9.30;4.61;;;;;;;;;;364325;147;857399;-59
2021/09/01 00:37:21;;;;;;;8.36;4.44;;;;;;;;;;363245;146;857353;-59
2021/09/01 00:38:22;;;;;;;7.38;4.51;;;;;;;;;;365148;147;857203;-59
2021/09/01 00:39:24;;;;;;;5.61;3.87;;;;;;;;;;363684;145;857345;-58
2021/09/01 00:40:31;;;;;;;15.11;4.71;;;;;;;;;;363349;146;859598;-58
2021/09/01 00:41:31;;;;;;;9.74;4.35;;;;;;;;;;357765;149;858126;-58
2021/09/01 00:42:36;;;;;;;7.22;4.60;;;;;;;;;;365999;147;858953;-60
2021/09/01 00:43:38;;;;;;;7.57;4.76;;;;;;;;;;364301;146;860188;-59
2021/09/01 00:44:40;;;;;;;12.11;4.87;;;;;;;;;;364167;147;857581;-58
2021/09/01 00:45:45;;;;;;;9.32;4.77;;;;;;;;;;365453;147;866098;-59
2021/09/01 00:46:47;;;;;;;8.91;4.76;;;;;;;;;;365550;147;857336;-59
2021/09/01 00:47:49;;;;;;;6.94;4.39;;;;;;;;;;365618;146;857418;-59
2021/09/01 00:48:51;;;;;;;8.19;4.57;;;;;;;;;;362971;147;861966;-58
2021/09/01 00:49:52;;;;;;;8.68;4.54;;;;;;;;;;361505;147;857404;-59
2021/09/01 00:50:56;;;;;;;17.73;5.10;;;;;;;;;;364563;147;857321;-58
2021/09/01 00:51:57;;;;;;;10.81;4.47;;;;;;;;;;363140;145;863935;-59
2021/09/01 00:52:59;;;;;;;10.08;4.56;;;;;;;;;;361074;147;857269;-59
2021/09/01 00:54:00;;;;;;;6.11;4.54;;;;;;;;;;363026;147;857107;-58
2021/09/01 00:55:02;;;;;;;8.44;4.40;;;;;;;;;;362835;146;857193;-58
2021/09/01 00:56:04;;;;;;;6.89;4.31;;;;;;;;;;361862;147;866090;-58
2021/09/01 00:57:06;;;;;;;7.73;4.54;;;;;;;;;;360739;147;857540;-59
2021/09/01 00:58:09;;;;;;;8.93;5.04;;;;;;;;;;366068;144;857144;-59
2021/09/01 00:59:12;;;;;;;9.19;4.67;;;;;;;;;;362328;146;857220;-58
2021/09/01 01:00:24;;;;;;;9.71;4.85;;;;;;;;;;362322;147;857153;-59
2021/09/01 01:01:19;;;;;;;9.35;4.31;;;;;;;;;;363208;145;857830;-59
2021/09/01 01:02:22;;;;;;;7.19;4.28;;;;;;;;;;365519;146;857256;-59
2021/09/01 01:03:23;;;;;;;9.95;4.99;;;;;;;;;;365471;147;858896;-59
2021/09/01 01:04:25;;;;;;;11.16;4.91;;;;;;;;;;364962;146;860116;-58
2021/09/01 01:05:27;;;;;;;8.43;4.66;;;;;;;;;;364950;146;859609;-58
2021/09/01 01:06:30;;;;;;;9.06;4.87;;;;;;;;;;364866;147;865375;-58
2021/09/01 01:07:31;;;;;;;7.83;5.32;;;;;;;;;;363370;147;857131;-59
2021/09/01 01:08:33;;;;;;;7.92;4.69;;;;;;;;;;362402;146;857122;-58
2021/09/01 01:09:35;;;;;;;8.33;5.01;;;;;;;;;;363762;147;857732;-59
2021/09/01 01:10:37;;;;;;;7.31;4.77;;;;;;;;;;365843;147;857213;-59
2021/09/01 01:11:41;;;;;;;8.43;4.77;;;;;;;;;;365042;147;858844;-58
2021/09/01 01:12:42;;;;;;;9.78;4.83;;;;;;;;;;356517;147;857701;-58
2021/09/01 01:13:44;;;;;;;9.74;4.67;;;;;;;;;;350785;149;857206;-58
2021/09/01 01:14:47;;;;;;;7.72;4.51;;;;;;;;;;364943;147;858375;-58
2021/09/01 01:15:48;;;;;;;8.24;5.04;;;;;;;;;;365096;146;857759;-59
2021/09/01 01:16:51;;;;;;;8.60;4.74;;;;;;;;;;364846;145;865826;-58
2021/09/01 01:17:53;;;;;;;13.01;5.05;;;;;;;;;;365663;147;857236;-58
2021/09/01 01:18:55;;;;;;;9.16;5.33;;;;;;;;;;365320;146;857355;-59
2021/09/01 01:19:56;;;;;;;9.53;5.07;;;;;;;;;;365005;145;857121;-59
2021/09/01 01:21:00;;;;;;;7.71;4.76;;;;;;;;;;364781;147;857223;-59
2021/09/01 01:22:02;;;;;;;9.58;4.75;;;;;;;;;;364912;147;858323;-59
2021/09/01 01:23:04;;;;;;;7.49;4.79;;;;;;;;;;364659;147;864772;-59
2021/09/01 01:24:05;;;;;;;7.97;5.31;;;;;;;;;;365093;145;866406;-59
2021/09/01 01:25:08;;;;;;;7.00;4.83;;;;;;;;;;362360;147;857766;-60
2021/09/01 01:26:10;;;;;;;6.85;4.77;;;;;;;;;;364613;147;857420;-59
2021/09/01 01:27:24;;;;;;;5.49;4.64;;;;;;;;;;363440;145;857344;-59
2021/09/01 01:28:26;;;;;;;6.98;4.68;;;;;;;;;;362297;147;857258;-59
2021/09/01 01:29:27;;;;;;;8.19;4.80;;;;;;;;;;363306;146;861347;-59
2021/09/01 01:30:29;;;;;;;10.14;4.94;;;;;;;;;;364857;145;857460;-60
2021/09/01 01:31:31;;;;;;;8.81;4.74;;;;;;;;;;365470;147;857677;-60
2021/09/01 01:32:32;;;;;;;9.70;4.57;;;;;;;;;;364919;146;857171;-59
2021/09/01 01:33:34;;;;;;;9.08;5.06;;;;;;;;;;365022;147;859016;-60
2021/09/01 01:34:35;;;;;;;8.16;4.41;;;;;;;;;;365979;146;859314;-60
2021/09/01 01:35:38;;;;;;;17.34;5.44;;;;;;;;;;364350;147;858032;-59
2021/09/01 01:36:41;;;;;;;8.12;4.55;;;;;;;;;;361557;147;860206;-59
2021/09/01 01:37:43;;;;;;;9.62;6.36;;;;;;;;;;364698;146;857766;-59
2021/09/01 01:38:44;;;;;;;8.25;5.05;;;;;;;;;;364481;147;857529;-59
2021/09/01 01:39:46;;;;;;;8.11;4.85;;;;;;;;;;362127;147;858590;-59
2021/09/01 01:40:49;;;;;;;10.41;4.94;;;;;;;;;;365150;146;857219;-59
2021/09/01 01:41:51;;;;;;;10.28;5.16;;;;;;;;;;364690;145;858798;-59
2021/09/01 01:42:56;;;;;;;9.21;4.67;;;;;;;;;;361619;146;857364;-59
2021/09/01 01:43:57;;;;;;;7.24;4.96;;;;;;;;;;360222;145;857514;-59
2021/09/01 01:45:01;;;;;;;10.96;4.76;;;;;;;;;;364554;146;857232;-58
2021/09/01 01:46:05;;;;;;;11.84;5.26;;;;;;;;;;362602;147;858617;-59
2021/09/01 01:47:07;;;;;;;6.60;4.96;;;;;;;;;;358027;147;857070;-59
2021/09/01 01:48:09;;;;;;;8.66;4.79;;;;;;;;;;360245;147;859332;-59
2021/09/01 01:49:11;;;;;;;9.45;4.92;;;;;;;;;;361865;147;859710;-59
2021/09/01 01:50:13;;;;;;;10.35;4.60;;;;;;;;;;356904;147;856441;-59
2021/09/01 01:51:14;;;;;;;10.28;4.58;;;;;;;;;;358915;147;858181;-58
2021/09/01 01:52:16;;;;;;;10.55;4.86;;;;;;;;;;359397;147;857762;-59
2021/09/01 01:53:17;;;;;;;7.52;4.89;;;;;;;;;;360927;147;857184;-58
2021/09/01 01:54:19;;;;;;;6.89;4.10;;;;;;;;;;359749;146;857306;-59
2021/09/01 01:55:21;;;;;;;6.39;4.11;;;;;;;;;;359232;147;857313;-58
2021/09/01 01:56:23;;;;;;;9.13;4.53;;;;;;;;;;360903;147;857177;-59
2021/09/01 01:57:24;;;;;;;7.51;4.16;;;;;;;;;;361774;147;859592;-59
2021/09/01 01:58:26;;;;;;;10.96;4.76;;;;;;;;;;361757;147;858947;-58
2021/09/01 01:59:27;;;;;;;8.26;4.44;;;;;;;;;;359965;147;858866;-59
2021/09/01 02:00:31;;;;;;;11.81;4.81;;;;;;;;;;357545;147;857309;-59
2021/09/01 02:01:32;;;;;;;8.89;4.69;;;;;;;;;;358380;148;857535;-58
2021/09/01 02:02:34;;;;;;;6.32;4.91;;;;;;;;;;361298;147;857358;-58
2021/09/01 02:03:35;;;;;;;6.97;4.46;;;;;;;;;;362878;147;861813;-59
2021/09/01 02:04:37;;;;;;;6.83;4.61;;;;;;;;;;357677;148;859101;-59
2021/09/01 02:05:38;;;;;;;12.18;4.67;;;;;;;;;;359325;148;858687;-58
2021/09/01 02:06:42;;;;;;;10.25;5.04;;;;;;;;;;360972;146;858202;-59
2021/09/01 02:07:43;;;;;;;6.06;4.55;;;;;;;;;;356136;147;857190;-58
2021/09/01 02:08:45;;;;;;;16.03;4.69;;;;;;;;;;360649;147;860192;-59
2021/09/01 02:09:47;;;;;;;7.39;4.77;;;;;;;;;;360523;147;857159;-59
2021/09/01 02:10:51;;;;;;;10.07;5.17;;;;;;;;;;361563;147;857226;-59
2021/09/01 02:11:53;;;;;;;14.29;4.68;;;;;;;;;;359402;147;858147;-59
2021/09/01 02:12:54;;;;;;;10.05;4.59;;;;;;;;;;361358;147;857483;-58
2021/09/01 02:13:56;;;;;;;5.93;4.41;;;;;;;;;;361987;146;865255;-59
2021/09/01 02:14:58;;;;;;;5.94;4.51;;;;;;;;;;359847;147;864939;-58
2021/09/01 02:15:59;;;;;;;6.99;4.63;;;;;;;;;;359554;147;864853;-59
2021/09/01 02:17:01;;;;;;;12.29;5.29;;;;;;;;;;360917;147;857156;-59
2021/09/01 02:18:03;;;;;;;8.29;4.56;;;;;;;;;;362043;147;857631;-59
2021/09/01 02:19:05;;;;;;;7.42;4.45;;;;;;;;;;358679;147;857122;-58
2021/09/01 02:20:08;;;;;;;7.17;4.37;;;;;;;;;;361667;147;864676;-58
2021/09/01 02:21:09;;;;;;;8.85;4.55;;;;;;;;;;356669;147;857147;-59
2021/09/01 02:22:11;;;;;;;6.93;4.08;;;;;;;;;;361079;147;860113;-58
2021/09/01 02:23:12;;;;;;;12.86;4.72;;;;;;;;;;361142;147;865555;-58
2021/09/01 02:24:14;;;;;;;7.16;4.43;;;;;;;;;;361096;146;858718;-58
2021/09/01 02:25:15;;;;;;;8.40;4.96;;;;;;;;;;361078;148;858571;-58
2021/09/01 02:26:17;;;;;;;8.59;5.04;;;;;;;;;;362343;147;858071;-59
2021/09/01 02:27:19;;;;;;;9.23;5.56;;;;;;;;;;360418;147;859231;-59
2021/09/01 02:28:21;;;;;;;7.99;5.20;;;;;;;;;;357103;147;857297;-58
2021/09/01 02:29:22;;;;;;;7.85;5.01;;;;;;;;;;355657;148;857720;-60
2021/09/01 02:30:25;;;;;;;7.41;4.69;;;;;;;;;;356061;147;857617;-59
2021/09/01 02:31:27;;;;;;;7.99;4.84;;;;;;;;;;359730;147;857150;-59
2021/09/01 02:32:28;;;;;;;6.22;4.66;;;;;;;;;;359004;147;857227;-58
2021/09/01 02:33:49;;;;;;;8.74;5.07;;;;;;;;;;361382;147;857303;-58
2021/09/01 02:34:51;;;;;;;7.23;4.47;;;;;;;;;;344176;155;857854;-58
2021/09/01 02:35:53;;;;;;;8.41;4.97;;;;;;;;;;345159;152;857744;-58
2021/09/01 02:36:56;;;;;;;8.65;4.87;;;;;;;;;;346699;155;865136;-58
2021/09/01 02:37:57;;;;;;;7.32;4.92;;;;;;;;;;345454;155;856712;-58
2021/09/01 02:38:59;;;;;;;8.28;5.36;;;;;;;;;;345123;152;859536;-58
2021/09/01 02:40:01;;;;;;;8.84;4.56;;;;;;;;;;346845;152;857357;-58
2021/09/01 02:41:02;;;;;;;7.01;5.39;;;;;;;;;;344882;155;859453;-58
2021/09/01 02:42:04;;;;;;;6.51;4.40;;;;;;;;;;344102;153;857748;-57
2021/09/01 02:43:05;;;;;;;6.46;4.79;;;;;;;;;;341910;152;857138;-58
2021/09/01 02:44:07;;;;;;;7.01;4.59;;;;;;;;;;345866;153;866504;-57
2021/09/01 02:45:09;;;;;;;5.63;4.51;;;;;;;;;;344335;155;858061;-58
2021/09/01 02:46:11;;;;;;;7.85;4.43;;;;;;;;;;343178;152;865641;-58
2021/09/01 02:47:12;;;;;;;10.72;4.51;;;;;;;;;;343713;155;857745;-58
2021/09/01 02:48:15;;;;;;;5.88;4.21;;;;;;;;;;346327;152;857306;-59
2021/09/01 02:49:17;;;;;;;9.82;4.41;;;;;;;;;;344401;152;857297;-58
2021/09/01 02:50:19;;;;;;;6.57;4.77;;;;;;;;;;342176;152;857699;-58
2021/09/01 02:51:20;;;;;;;6.98;4.64;;;;;;;;;;342301;155;857299;-59
2021/09/01 02:52:22;;;;;;;11.41;4.41;;;;;;;;;;342951;152;857192;-59
2021/09/01 02:53:23;;;;;;;8.87;4.99;;;;;;;;;;343033;155;858935;-58
2021/09/01 02:54:25;;;;;;;9.45;4.18;;;;;;;;;;343764;155;859329;-58
2021/09/01 02:55:27;;;;;;;10.45;4.60;;;;;;;;;;345502;155;856286;-58
2021/09/01 02:56:29;;;;;;;6.89;4.52;;;;;;;;;;342190;152;866516;-58
2021/09/01 02:57:31;;;;;;;6.59;4.61;;;;;;;;;;343369;155;857189;-57
2021/09/01 02:58:32;;;;;;;9.35;4.45;;;;;;;;;;342609;155;865670;-58
2021/09/01 02:59:34;;;;;;;5.57;4.21;;;;;;;;;;343427;152;858956;-58
2021/09/01 03:00:36;;;;;;;9.85;4.91;;;;;;;;;;341976;153;858123;-57
2021/09/01 03:01:38;;;;;;;6.76;4.46;;;;;;;;;;344694;155;858932;-58
2021/09/01 03:02:40;;;;;;;6.06;4.34;;;;;;;;;;344742;152;865756;-58
2021/09/01 03:03:41;;;;;;;8.71;4.47;;;;;;;;;;342392;152;859734;-57
2021/09/01 03:04:43;;;;;;;7.99;4.76;;;;;;;;;;341377;155;857140;-58
2021/09/01 03:05:44;;;;;;;7.62;4.42;;;;;;;;;;344635;155;866479;-58
2021/09/01 03:06:47;;;;;;;7.27;4.57;;;;;;;;;;343938;152;859034;-59
2021/09/01 03:07:49;;;;;;;7.81;4.64;;;;;;;;;;343501;155;866674;-59
2021/09/01 03:08:50;;;;;;;5.61;4.49;;;;;;;;;;342329;155;858342;-59
2021/09/01 03:09:52;;;;;;;8.44;4.75;;;;;;;;;;341192;152;857463;-59
2021/09/01 03:10:55;;;;;;;6.44;4.63;;;;;;;;;;343286;152;857367;-58
2021/09/01 03:11:56;;;;;;;7.24;4.99;;;;;;;;;;342678;155;863872;-57
2021/09/01 03:12:58;;;;;;;6.91;4.59;;;;;;;;;;341784;155;859244;-58
2021/09/01 03:13:59;;;;;;;9.14;4.89;;;;;;;;;;343239;152;857458;-58
2021/09/01 03:15:01;;;;;;;6.78;4.49;;;;;;;;;;342929;152;859593;-58
2021/09/01 03:16:03;;;;;;;5.84;4.46;;;;;;;;;;345174;155;859004;-58
2021/09/01 03:17:04;;;;;;;7.09;4.53;;;;;;;;;;343214;152;866674;-58
2021/09/01 03:18:06;;;;;;;7.67;4.24;;;;;;;;;;344175;152;857099;-58
2021/09/01 03:19:08;;;;;;;7.17;4.83;;;;;;;;;;343519;155;857311;-58
2021/09/01 03:20:12;;;;;;;7.25;4.88;;;;;;;;;;343850;155;857331;-58
2021/09/01 03:21:13;;;;;;;5.19;4.56;;;;;;;;;;341607;152;857893;-58
2021/09/01 03:22:15;;;;;;;7.45;4.70;;;;;;;;;;344958;152;857558;-58
2021/09/01 03:23:16;;;;;;;6.34;4.24;;;;;;;;;;344936;155;864977;-58
2021/09/01 03:24:18;;;;;;;5.81;4.35;;;;;;;;;;342386;152;857312;-59
2021/09/01 03:25:20;;;;;;;5.86;4.32;;;;;;;;;;343385;152;857454;-58
2021/09/01 03:26:26;;;;;;;7.46;4.95;;;;;;;;;;341853;155;857293;-58
2021/09/01 03:27:26;;;;;;;6.84;4.71;;;;;;;;;;343798;155;857184;-59
2021/09/01 03:28:28;;;;;;;9.73;4.84;;;;;;;;;;342266;152;857533;-59
2021/09/01 03:29:29;;;;;;;9.09;4.90;;;;;;;;;;342399;152;857294;-59
2021/09/01 03:30:32;;;;;;;7.49;5.75;;;;;;;;;;342077;155;858116;-59
2021/09/01 03:31:33;;;;;;;5.87;4.74;;;;;;;;;;341607;152;859337;-59
2021/09/01 03:32:35;;;;;;;6.53;4.83;;;;;;;;;;343399;152;860475;-58
2021/09/01 03:33:37;;;;;;;7.76;4.72;;;;;;;;;;343304;152;865582;-58
2021/09/01 03:34:38;;;;;;;7.12;4.46;;;;;;;;;;341308;155;864898;-58
2021/09/01 03:35:40;;;;;;;6.46;4.76;;;;;;;;;;341548;152;857596;-59
2021/09/01 03:36:43;;;;;;;6.96;4.67;;;;;;;;;;341432;152;857364;-59
2021/09/01 03:37:44;;;;;;;7.27;4.76;;;;;;;;;;341707;155;857217;-59
2021/09/01 03:38:46;;;;;;;12.07;5.46;;;;;;;;;;342797;152;866627;-58
2021/09/01 03:39:47;;;;;;;7.39;4.44;;;;;;;;;;341518;152;858969;-58
2021/09/01 03:40:50;;;;;;;6.00;4.23;;;;;;;;;;344557;155;858726;-58
2021/09/01 03:41:51;;;;;;;6.44;4.38;;;;;;;;;;342132;155;858983;-58
2021/09/01 03:42:53;;;;;;;9.50;4.55;;;;;;;;;;342406;152;859888;-59
2021/09/01 03:43:54;;;;;;;12.74;4.39;;;;;;;;;;342252;153;860040;-60
2021/09/01 03:44:56;;;;;;;12.33;4.36;;;;;;;;;;342626;155;857742;-59
2021/09/01 03:45:58;;;;;;;6.09;4.54;;;;;;;;;;344961;152;857355;-59
2021/09/01 03:46:59;;;;;;;6.66;4.65;;;;;;;;;;340538;152;866656;-60
2021/09/01 03:48:01;;;;;;;7.41;4.96;;;;;;;;;;343590;153;865161;-59
2021/09/01 03:49:03;;;;;;;8.59;4.34;;;;;;;;;;345789;155;859852;-59
2021/09/01 03:50:06;;;;;;;8.11;5.05;;;;;;;;;;343491;152;858695;-59
2021/09/01 03:51:07;;;;;;;9.29;5.25;;;;;;;;;;341816;152;858543;-60
2021/09/01 03:52:09;;;;;;;6.34;5.21;;;;;;;;;;345068;155;866550;-59
2021/09/01 03:53:11;;;;;;;7.21;4.44;;;;;;;;;;344105;152;860012;-61
2021/09/01 03:54:12;;;;;;;8.24;4.56;;;;;;;;;;341567;153;858998;-60
2021/09/01 03:55:14;;;;;;;7.79;5.04;;;;;;;;;;346517;153;858516;-59
2021/09/01 03:56:15;;;;;;;9.25;4.71;;;;;;;;;;342582;155;858362;-59
2021/09/01 03:57:18;;;;;;;9.75;4.69;;;;;;;;;;335633;156;864786;-60
2021/09/01 03:58:20;;;;;;;11.09;4.47;;;;;;;;;;337642;155;866651;-60
2021/09/01 03:59:21;;;;;;;6.56;4.39;;;;;;;;;;342426;155;865394;-61
2021/09/01 04:00:23;;;;;;;5.76;4.55;;;;;;;;;;341854;152;866131;-56
2021/09/01 04:01:25;;;;;;;5.76;4.45;;;;;;;;;;343221;155;865791;-58
2021/09/01 04:02:26;;;;;;;6.66;4.81;;;;;;;;;;341071;152;857263;-60
2021/09/01 04:03:28;;;;;;;9.23;4.67;;;;;;;;;;341102;155;857311;-60
2021/09/01 04:04:29;;;;;;;10.99;5.00;;;;;;;;;;342896;152;857643;-59
2021/09/01 04:05:31;;;;;;;9.97;5.76;;;;;;;;;;342411;152;866652;-58
2021/09/01 04:06:33;;;;;;;7.83;5.47;;;;;;;;;;346888;155;858155;-60
2021/09/01 04:07:35;;;;;;;7.22;5.41;;;;;;;;;;341466;155;859088;-60
2021/09/01 04:08:37;;;;;;;7.74;5.05;;;;;;;;;;343884;155;864691;-60
2021/09/01 04:09:38;;;;;;;9.76;4.94;;;;;;;;;;341541;155;857178;-58
2021/09/01 04:10:40;;;;;;;9.32;5.38;;;;;;;;;;341494;152;857181;-59
2021/09/01 04:11:42;;;;;;;9.53;5.44;;;;;;;;;;341277;153;857168;-63
2021/09/01 04:12:43;;;;;;;9.58;6.06;;;;;;;;;;341999;153;864884;-58
2021/09/01 04:13:45;;;;;;;8.78;5.56;;;;;;;;;;344058;155;857399;-59
2021/09/01 04:14:47;;;;;;;8.42;5.34;;;;;;;;;;343954;152;857268;-58
2021/09/01 04:15:48;;;;;;;7.98;5.69;;;;;;;;;;342687;152;859146;-59
2021/09/01 04:16:50;;;;;;;7.33;5.52;;;;;;;;;;341854;155;865473;-57
2021/09/01 04:17:52;;;;;;;6.96;5.48;;;;;;;;;;341729;155;859087;-59
2021/09/01 04:18:53;;;;;;;7.51;5.49;;;;;;;;;;342989;152;859036;-58
2021/09/01 04:19:55;;;;;;;8.81;5.49;;;;;;;;;;343261;152;856636;-59
2021/09/01 04:20:57;;;;;;;8.00;6.06;;;;;;;;;;342814;155;856503;-59
2021/09/01 04:21:58;;;;;;;7.46;5.31;;;;;;;;;;341641;152;864184;-57
2021/09/01 04:23:00;;;;;;;13.72;5.94;;;;;;;;;;342062;152;865191;-58
2021/09/01 04:24:01;;;;;;;8.89;5.37;;;;;;;;;;344627;155;857213;-59
2021/09/01 04:25:04;;;;;;;10.23;5.52;;;;;;;;;;344789;155;857187;-59
2021/09/01 04:26:06;;;;;;;9.62;5.76;;;;;;;;;;342803;152;857704;-59
2021/09/01 04:27:07;;;;;;;9.06;5.79;;;;;;;;;;342846;152;865764;-59
2021/09/01 04:28:09;;;;;;;10.46;5.83;;;;;;;;;;341976;155;866744;-60
2021/09/01 04:29:10;;;;;;;10.08;5.78;;;;;;;;;;343275;155;857239;-60
2021/09/01 04:30:14;;;;;;;11.66;6.72;;;;;;;;;;340906;152;859082;-60
2021/09/01 04:31:15;;;;;;;8.76;5.44;;;;;;;;;;342610;155;857553;-60
2021/09/01 04:32:20;;;;;;;6.79;5.48;;;;;;;;;;341308;153;864847;-59
2021/09/01 04:33:22;;;;;;;8.33;5.66;;;;;;;;;;342462;155;857321;-59
2021/09/01 04:34:23;;;;;;;11.24;5.92;;;;;;;;;;345356;152;858876;-60
2021/09/01 04:35:25;;;;;;;8.46;5.30;;;;;;;;;;343522;155;859607;-58
2021/09/01 04:36:27;;;;;;;8.26;5.93;;;;;;;;;;344984;152;856846;-59
2021/09/01 04:37:28;;;;;;;12.06;6.36;;;;;;;;;;342068;152;857214;-59
2021/09/01 04:38:30;;;;;;;8.01;5.53;;;;;;;;;;341494;155;857289;-59
2021/09/01 04:39:31;;;;;;;7.84;5.78;;;;;;;;;;343386;152;857231;-59
2021/09/01 04:40:34;;;;;;;10.18;5.81;;;;;;;;;;342651;152;859439;-58
2021/09/01 04:41:36;;;;;;;6.56;4.98;;;;;;;;;;341919;153;858864;-58
2021/09/01 04:42:37;;;;;;;9.96;5.75;;;;;;;;;;341591;155;865167;-59
2021/09/01 04:43:39;;;;;;;11.51;5.55;;;;;;;;;;341431;152;857669;-58
2021/09/01 04:44:41;;;;;;;10.11;5.07;;;;;;;;;;342569;153;857289;-58
2021/09/01 04:45:42;;;;;;;10.25;5.38;;;;;;;;;;343020;155;857206;-57
2021/09/01 04:46:45;;;;;;;8.90;5.21;;;;;;;;;;341423;155;866177;-57
2021/09/01 04:47:47;;;;;;;7.30;5.27;;;;;;;;;;342932;153;866794;-59
2021/09/01 04:48:48;;;;;;;8.48;4.77;;;;;;;;;;341501;155;858597;-58
2021/09/01 04:49:50;;;;;;;8.93;5.21;;;;;;;;;;343297;155;857285;-59
2021/09/01 04:50:52;;;;;;;7.90;5.29;;;;;;;;;;344509;152;857416;-59
2021/09/01 04:51:54;;;;;;;8.49;4.96;;;;;;;;;;341866;153;857405;-56
2021/09/01 04:52:55;;;;;;;8.84;5.26;;;;;;;;;;342506;155;859134;-57
2021/09/01 04:53:57;;;;;;;8.88;5.14;;;;;;;;;;343288;155;857906;-58
2021/09/01 04:54:59;;;;;;;13.30;5.36;;;;;;;;;;342372;152;859308;-58
2021/09/01 04:56:00;;;;;;;12.73;5.30;;;;;;;;;;343825;152;858694;-58
2021/09/01 04:57:02;;;;;;;11.69;5.86;;;;;;;;;;343497;155;859276;-58
2021/09/01 04:58:04;;;;;;;12.89;5.35;;;;;;;;;;343474;152;857783;-58
2021/09/01 04:59:05;;;;;;;14.01;4.97;;;;;;;;;;343022;152;865308;-57
2021/09/01 05:00:08;;;;;;;9.45;4.95;;;;;;;;;;340871;155;864903;-57
2021/09/01 05:01:09;;;;;;;7.94;4.61;;;;;;;;;;340989;152;857844;-57
2021/09/01 05:02:11;;;;;;;10.77;5.42;;;;;;;;;;343404;152;858075;-57
2021/09/01 05:03:12;;;;;;;8.01;4.86;;;;;;;;;;341171;153;865028;-59
2021/09/01 05:04:14;;;;;;;11.07;5.26;;;;;;;;;;340799;158;857187;-58
2021/09/01 05:05:16;;;;;;;7.99;5.37;;;;;;;;;;341777;152;857270;-58
2021/09/01 05:06:18;;;;;;;13.01;5.27;;;;;;;;;;341911;153;857798;-57
2021/09/01 05:07:20;;;;;;;9.36;4.88;;;;;;;;;;340725;155;857531;-58
2021/09/01 05:08:21;;;;;;;8.37;4.91;;;;;;;;;;342668;152;857165;-59
2021/09/01 05:09:23;;;;;;;9.69;5.00;;;;;;;;;;343103;155;859152;-57
2021/09/01 05:10:26;;;;;;;8.00;5.16;;;;;;;;;;336600;156;857845;-58
2021/09/01 05:11:28;;;;;;;11.43;5.74;;;;;;;;;;337215;155;858083;-60
2021/09/01 05:12:29;;;;;;;11.24;4.98;;;;;;;;;;341997;152;865468;-58
2021/09/01 05:13:31;;;;;;;10.22;5.35;;;;;;;;;;342561;152;857678;-58
2021/09/01 05:14:32;;;;;;;6.67;4.94;;;;;;;;;;342447;155;857273;-58
2021/09/01 05:15:34;;;;;;;7.38;5.19;;;;;;;;;;340843;152;857145;-57
2021/09/01 05:16:36;;;;;;;9.31;5.15;;;;;;;;;;342319;152;866027;-58
2021/09/01 05:17:37;;;;;;;8.34;5.13;;;;;;;;;;341870;152;857334;-58
2021/09/01 05:18:39;;;;;;;6.69;4.69;;;;;;;;;;340034;155;858956;-59
2021/09/01 05:19:41;;;;;;;8.64;5.15;;;;;;;;;;343247;152;858950;-58
2021/09/01 05:20:44;;;;;;;7.71;4.80;;;;;;;;;;342449;152;859411;-59
2021/09/01 05:21:50;;;;;;;7.49;4.63;;;;;;;;;;345312;155;859009;-58
2021/09/01 05:22:53;;;;;;;7.87;4.48;;;;;;;;;;344765;152;859742;-58
2021/09/01 05:23:56;;;;;;;10.81;4.71;;;;;;;;;;343866;152;858976;-58
2021/09/01 05:24:59;;;;;;;8.21;4.63;;;;;;;;;;345216;153;858906;-58
2021/09/01 05:26:02;;;;;;;7.87;4.81;;;;;;;;;;342375;156;865647;-59
2021/09/01 05:27:08;;;;;;;8.29;5.04;;;;;;;;;;344358;152;857197;-59
2021/09/01 05:28:09;;;;;;;6.64;4.48;;;;;;;;;;341429;152;866379;-59
2021/09/01 05:29:14;;;;;;;8.96;5.17;;;;;;;;;;343987;155;857911;-59
2021/09/01 05:30:17;;;;;;;7.98;5.06;;;;;;;;;;344239;152;865715;-59
2021/09/01 05:31:19;;;;;;;11.40;5.25;;;;;;;;;;342403;152;857687;-60
2021/09/01 05:32:24;;;;;;;7.31;4.99;;;;;;;;;;342801;152;858669;-60
2021/09/01 05:33:28;;;;;;;9.24;4.69;;;;;;;;;;342630;155;857221;-59
2021/09/01 05:34:29;;;;;;;8.59;4.68;;;;;;;;;;340592;155;857249;-60
2021/09/01 05:35:31;;;;;;;8.91;4.99;;;;;;;;;;343148;152;857624;-60
2021/09/01 05:36:34;;;;;;;9.77;5.08;;;;;;;;;;342133;155;864860;-59
2021/09/01 05:37:37;;;;;;;7.77;4.96;;;;;;;;;;344320;152;857292;-59
2021/09/01 05:38:38;;;;;;;6.74;5.30;;;;;;;;;;342860;152;864822;-59
2021/09/01 05:39:41;;;;;;;5.56;4.68;;;;;;;;;;344452;155;859423;-59
2021/09/01 05:40:46;;;;;;;6.02;4.59;;;;;;;;;;344636;155;858906;-59
2021/09/01 05:41:48;;;;;;;7.41;4.97;;;;;;;;;;341193;155;864873;-59
2021/09/01 05:42:49;;;;;;;9.93;5.16;;;;;;;;;;341469;152;865394;-60
2021/09/01 05:43:51;;;;;;;8.21;5.09;;;;;;;;;;341846;155;865409;-60
2021/09/01 05:44:52;;;;;;;10.17;5.41;;;;;;;;;;341921;152;859760;-59
2021/09/01 05:45:54;;;;;;;9.36;4.65;;;;;;;;;;341074;152;859152;-61
2021/09/01 05:46:57;;;;;;;5.85;5.07;;;;;;;;;;341191;155;858887;-61
2021/09/01 05:47:59;;;;;;;8.70;5.31;;;;;;;;;;343024;155;858242;-59
2021/09/01 05:49:00;;;;;;;12.95;5.43;;;;;;;;;;341790;152;865435;-59
2021/09/01 05:50:02;;;;;;;10.36;5.16;;;;;;;;;;342794;152;865507;-58
2021/09/01 05:51:05;;;;;;;11.49;4.97;;;;;;;;;;345191;155;857192;-60
2021/09/01 05:52:07;;;;;;;7.21;5.12;;;;;;;;;;344244;155;857766;-59
2021/09/01 05:53:10;;;;;;;8.02;4.81;;;;;;;;;;342993;152;864751;-56
2021/09/01 05:54:12;;;;;;;6.44;4.76;;;;;;;;;;343736;155;865659;-59
2021/09/01 05:55:14;;;;;;;5.38;4.37;;;;;;;;;;346001;155;857240;-59
2021/09/01 05:56:17;;;;;;;6.51;4.66;;;;;;;;;;338410;156;863669;-56
2021/09/01 05:57:36;;;;;;;6.82;4.54;;;;;;;;;;338581;155;857707;-57
2021/09/01 05:58:38;;;;;;;8.74;4.88;;;;;;;;;;338645;157;858507;-56
2021/09/01 05:59:44;;;;;;;10.44;5.30;;;;;;;;;;340812;152;857213;-58
2021/09/01 06:00:48;;;;;;;6.10;4.66;;;;;;;;;;342686;153;864841;-57
2021/09/01 06:01:51;;;;;;;9.16;5.24;;;;;;;;;;340508;155;859133;-57
2021/09/01 06:02:53;;;;;;;6.71;4.69;;;;;;;;;;340884;152;858387;-56
2021/09/01 06:03:56;;;;;;;7.26;5.37;;;;;;;;;;342686;153;864953;-59
2021/09/01 06:04:58;;;;;;;6.94;4.89;;;;;;;;;;343564;155;857302;-59
2021/09/01 06:06:01;;;;;;;7.69;4.77;;;;;;;;;;346760;155;859193;-57